createdAt,value
2023-03-19T00:01:46.392Z,1.50
2023-03-19T00:03:49.404Z,2.80
2023-03-19T00:05:53.899Z,2.90
2023-03-19T00:07:57.157Z,2.03
2023-03-19T00:09:59.879Z,1.70
2023-03-19T00:12:02.721Z,1.77
2023-03-19T00:14:06.403Z,1.70
2023-03-19T00:16:09.270Z,2.30
2023-03-19T00:18:12.404Z,1.07
2023-03-19T00:20:15.733Z,1.70
2023-03-19T00:22:18.856Z,1.40
2023-03-19T00:24:21.544Z,1.40
2023-03-19T00:26:24.286Z,0.93
2023-03-19T00:28:27.523Z,2.30
2023-03-19T00:30:30.262Z,4.97
2023-03-19T00:32:34.352Z,3.30
2023-03-19T00:34:37.164Z,1.70
2023-03-19T00:36:40.220Z,2.90
2023-03-19T00:38:44.068Z,2.43
2023-03-19T00:40:47.980Z,1.10
2023-03-19T00:42:51.066Z,1.43
2023-03-19T00:44:53.797Z,3.07
2023-03-19T00:46:56.560Z,2.43
2023-03-19T00:48:59.355Z,2.20
2023-03-19T00:51:07.143Z,0.97
2023-03-19T00:53:10.312Z,1.10
2023-03-19T00:55:13.128Z,2.40
2023-03-19T00:57:16.124Z,1.63
2023-03-19T00:59:18.930Z,1.23
2023-03-19T01:01:21.836Z,5.30
2023-03-19T01:03:24.524Z,3.87
2023-03-19T01:05:27.356Z,2.53
2023-03-19T01:07:29.844Z,2.53
2023-03-19T01:09:32.981Z,0.50
2023-03-19T01:11:36.052Z,3.13
2023-03-19T01:13:38.863Z,1.03
2023-03-19T01:15:43.088Z,2.40
2023-03-19T01:17:45.993Z,1.17
2023-03-19T01:19:51.056Z,1.17
2023-03-19T01:21:53.652Z,2.10
2023-03-19T01:23:57.245Z,1.47
2023-03-19T01:25:59.735Z,0.80
2023-03-19T01:28:03.207Z,1.10
2023-03-19T01:30:07.747Z,2.80
2023-03-19T01:32:10.879Z,3.63
2023-03-19T01:34:13.489Z,1.83
2023-03-19T01:36:16.053Z,1.67
2023-03-19T01:38:18.750Z,1.03
2023-03-19T01:40:21.280Z,1.33
2023-03-19T01:42:23.880Z,2.47
2023-03-19T01:44:35.800Z,1.23
2023-03-19T01:46:39.637Z,0.90
2023-03-19T01:48:44.638Z,1.10
2023-03-19T01:50:50.472Z,6.70
2023-03-19T01:52:53.053Z,0.67
2023-03-19T01:54:57.484Z,1.00
2023-03-19T01:57:05.919Z,2.47
2023-03-19T01:59:14.133Z,1.43
2023-03-19T02:01:17.141Z,1.27
2023-03-19T02:03:19.648Z,1.00
2023-03-19T02:05:26.100Z,1.20
2023-03-19T02:07:35.038Z,2.73
2023-03-19T02:09:37.627Z,2.47
2023-03-19T02:11:40.545Z,0.90
2023-03-19T02:13:43.832Z,1.77
2023-03-19T02:15:46.534Z,1.90
2023-03-19T02:17:49.465Z,1.27
2023-03-19T02:20:11.166Z,2.43
2023-03-19T02:22:16.875Z,0.68
2023-03-19T02:24:29.116Z,1.20
2023-03-19T02:26:32.113Z,2.60
2023-03-19T02:28:37.849Z,3.43
2023-03-19T02:30:41.302Z,2.93
2023-03-19T02:32:44.771Z,3.17
2023-03-19T02:34:48.751Z,5.87
2023-03-19T02:36:55.984Z,3.43
2023-03-19T02:39:02.789Z,1.20
2023-03-19T02:41:08.829Z,1.80
2023-03-19T02:43:11.523Z,3.13
2023-03-19T02:45:15.014Z,2.17
2023-03-19T02:47:18.250Z,2.47
2023-03-19T02:49:20.743Z,2.67
2023-03-19T02:51:23.539Z,2.43
2023-03-19T02:53:26.280Z,5.70
2023-03-19T02:55:28.868Z,2.50
2023-03-19T02:57:31.419Z,1.17
2023-03-19T02:59:34.379Z,1.70
2023-03-19T03:01:37.684Z,1.93
2023-03-19T03:03:40.228Z,3.80
2023-03-19T03:05:42.820Z,1.30
2023-03-19T03:07:45.345Z,1.63
2023-03-19T03:09:48.066Z,4.60
2023-03-19T03:11:51.171Z,3.10
2023-03-19T03:13:53.608Z,8.87
2023-03-19T03:15:56.268Z,3.60
2023-03-19T03:17:58.908Z,2.47
2023-03-19T03:20:01.445Z,6.40
2023-03-19T03:22:05.772Z,2.57
2023-03-19T03:24:09.547Z,2.17
2023-03-19T03:26:12.412Z,4.50
2023-03-19T03:28:14.879Z,2.27
2023-03-19T03:30:17.552Z,1.93
2023-03-19T03:32:20.023Z,5.27
2023-03-19T03:34:22.515Z,2.97
2023-03-19T03:36:25.649Z,2.87
2023-03-19T03:38:32.716Z,4.47
2023-03-19T03:40:36.861Z,4.33
2023-03-19T03:42:39.408Z,2.80
2023-03-19T03:44:42.340Z,2.73
2023-03-19T03:46:44.856Z,2.13
2023-03-19T03:48:49.469Z,3.00
2023-03-19T03:50:52.473Z,5.00
2023-03-19T03:52:54.986Z,9.00
2023-03-19T03:54:58.658Z,4.00
2023-03-19T03:57:03.514Z,3.87
2023-03-19T03:59:06.289Z,4.20
2023-03-19T04:01:15.283Z,3.73
2023-03-19T04:03:18.473Z,2.47
2023-03-19T04:05:21.092Z,3.23
2023-03-19T04:07:23.680Z,5.97
2023-03-19T04:09:26.565Z,8.57
2023-03-19T04:11:29.792Z,2.53
2023-03-19T04:13:36.671Z,2.80
2023-03-19T04:15:43.059Z,2.90
2023-03-19T04:17:45.704Z,1.60
2023-03-19T04:19:48.255Z,4.37
2023-03-19T04:21:51.018Z,2.67
2023-03-19T04:23:53.466Z,6.47
2023-03-19T04:26:04.351Z,3.90
2023-03-19T04:28:07.123Z,1.97
2023-03-19T04:30:10.493Z,3.63
2023-03-19T04:32:13.132Z,6.13
2023-03-19T04:34:15.678Z,4.70
2023-03-19T04:36:19.051Z,2.13
2023-03-19T04:38:22.316Z,3.50
2023-03-19T04:40:25.394Z,3.43
2023-03-19T04:42:28.017Z,2.67
2023-03-19T04:44:31.210Z,3.00
2023-03-19T04:46:33.743Z,3.17
2023-03-19T04:48:36.575Z,4.90
2023-03-19T04:50:40.451Z,3.43
2023-03-19T04:52:43.014Z,3.23
2023-03-19T04:54:45.512Z,2.40
2023-03-19T04:56:48.016Z,1.77
2023-03-19T04:58:50.571Z,3.63
2023-03-19T05:00:53.684Z,2.17
2023-03-19T05:02:56.786Z,4.10
2023-03-19T05:04:59.307Z,1.80
2023-03-19T05:07:01.817Z,1.67
2023-03-19T05:09:05.600Z,3.83
2023-03-19T05:11:08.166Z,2.83
2023-03-19T05:13:11.022Z,4.20
2023-03-19T05:15:13.560Z,4.90
2023-03-19T05:17:16.117Z,2.30
2023-03-19T05:19:18.691Z,2.60
2023-03-19T05:21:21.629Z,2.75
2023-03-19T05:23:24.247Z,3.25
2023-03-19T05:25:27.211Z,3.67
2023-03-19T05:27:30.152Z,6.25
2023-03-19T05:29:32.833Z,2.13
2023-03-19T05:31:35.457Z,3.97
2023-03-19T05:33:38.021Z,3.13
2023-03-19T05:35:40.716Z,3.60
2023-03-19T05:37:43.345Z,2.17
2023-03-19T05:39:45.795Z,3.85
2023-03-19T05:41:48.346Z,2.85
2023-03-19T05:43:51.467Z,2.47
2023-03-19T05:45:54.042Z,2.50
2023-03-19T05:47:56.914Z,1.15
2023-03-19T05:49:59.509Z,2.75
2023-03-19T05:52:01.935Z,2.80
2023-03-19T05:54:04.541Z,1.83
2023-03-19T05:56:07.791Z,4.05
2023-03-19T05:58:10.470Z,3.60
2023-03-19T06:00:14.036Z,2.80
2023-03-19T06:02:16.575Z,2.28
2023-03-19T06:04:19.452Z,2.13
2023-03-19T06:06:22.929Z,2.65
2023-03-19T06:08:25.507Z,3.83
2023-03-19T06:10:28.527Z,2.28
2023-03-19T06:12:32.477Z,2.40
2023-03-19T06:14:35.008Z,1.92
2023-03-19T06:16:37.645Z,5.43
2023-03-19T06:18:40.589Z,7.13
2023-03-19T06:20:43.126Z,2.50
2023-03-19T06:22:45.641Z,3.28
2023-03-19T06:24:48.225Z,4.43
2023-03-19T06:26:50.707Z,2.25
2023-03-19T06:28:54.134Z,12.20
2023-03-19T06:30:58.018Z,4.20
2023-03-19T06:33:00.907Z,2.40
2023-03-19T06:35:03.603Z,2.08
2023-03-19T06:37:06.345Z,1.90
2023-03-19T06:39:09.431Z,2.15
2023-03-19T06:41:12.157Z,3.33
2023-03-19T06:43:14.786Z,2.35
2023-03-19T06:45:19.082Z,1.55
2023-03-19T06:47:21.620Z,3.92
2023-03-19T06:49:29.292Z,5.93
2023-03-19T06:51:33.602Z,3.20
2023-03-19T06:53:36.211Z,2.35
2023-03-19T06:55:38.974Z,4.20
2023-03-19T06:57:41.610Z,5.00
2023-03-19T06:59:44.224Z,2.05
2023-03-19T07:01:46.993Z,1.73
2023-03-19T07:03:49.728Z,2.97
2023-03-19T07:05:52.326Z,2.13
2023-03-19T07:07:54.878Z,3.35
2023-03-19T07:09:57.417Z,7.28
2023-03-19T07:12:00.045Z,3.70
2023-03-19T07:14:03.130Z,2.15
2023-03-19T07:16:06.493Z,2.60
2023-03-19T07:18:09.070Z,3.75
2023-03-19T07:20:12.297Z,2.10
2023-03-19T07:22:14.759Z,2.75
2023-03-19T07:24:17.357Z,2.58
2023-03-19T07:26:20.243Z,2.00
2023-03-19T07:28:23.230Z,2.78
2023-03-19T07:30:26.064Z,2.13
2023-03-19T07:32:28.628Z,4.75
2023-03-19T07:34:31.767Z,1.85
2023-03-19T07:36:34.309Z,6.13
2023-03-19T07:38:36.834Z,4.07
2023-03-19T07:40:43.377Z,2.28
2023-03-19T07:42:48.491Z,1.52
2023-03-19T07:44:51.069Z,5.32
2023-03-19T07:46:53.726Z,7.03
2023-03-19T07:48:56.324Z,2.38
2023-03-19T07:50:58.976Z,5.25
2023-03-19T07:53:01.471Z,5.07
2023-03-19T07:55:04.309Z,4.38
2023-03-19T07:57:07.093Z,5.47
2023-03-19T07:59:09.662Z,6.10
2023-03-19T08:01:12.280Z,2.33
2023-03-19T08:03:15.021Z,2.03
2023-03-19T08:05:17.696Z,2.92
2023-03-19T08:07:20.317Z,5.78
2023-03-19T08:09:22.806Z,3.92
2023-03-19T08:11:25.712Z,4.93
2023-03-19T08:13:28.615Z,1.38
2023-03-19T08:15:31.291Z,1.95
2023-03-19T08:17:38.608Z,9.27
2023-03-19T08:19:41.478Z,4.10
2023-03-19T08:21:44.058Z,4.05
2023-03-19T08:23:46.708Z,5.20
2023-03-19T08:25:51.900Z,3.50
2023-03-19T08:27:54.589Z,5.40
2023-03-19T08:30:00.357Z,4.22
2023-03-19T08:32:03.238Z,6.53
2023-03-19T08:34:06.287Z,3.42
2023-03-19T08:36:14.369Z,2.75
2023-03-19T08:38:17.207Z,2.28
2023-03-19T08:40:19.982Z,2.55
2023-03-19T08:42:23.021Z,2.95
2023-03-19T08:44:25.889Z,3.85
2023-03-19T08:46:29.501Z,3.33
2023-03-19T08:48:32.228Z,3.50
2023-03-19T08:50:34.895Z,4.03
2023-03-19T08:52:37.869Z,6.78
2023-03-19T08:54:40.690Z,6.40
2023-03-19T08:56:43.278Z,3.65
2023-03-19T08:58:45.938Z,2.35
2023-03-19T09:00:49.415Z,1.75
2023-03-19T09:02:51.945Z,2.70
2023-03-19T09:04:54.756Z,9.20
2023-03-19T09:06:57.560Z,4.40
2023-03-19T09:09:00.132Z,2.15
2023-03-19T09:11:03.116Z,2.65
2023-03-19T09:13:05.904Z,4.65
2023-03-19T09:15:08.742Z,4.15
2023-03-19T09:17:11.774Z,1.55
2023-03-19T09:19:14.501Z,1.75
2023-03-19T09:21:17.086Z,2.97
2023-03-19T09:23:20.945Z,2.47
2023-03-19T09:25:23.610Z,4.05
2023-03-19T09:27:26.161Z,1.85
2023-03-19T09:29:28.918Z,7.47
2023-03-19T09:31:31.483Z,2.35
2023-03-19T09:33:34.734Z,2.45
2023-03-19T09:35:39.878Z,6.57
2023-03-19T09:37:42.573Z,2.65
2023-03-19T09:39:45.421Z,7.00
2023-03-19T09:42:10.071Z,1.98
2023-03-19T09:44:28.681Z,3.95
2023-03-19T09:47:02.034Z,3.28
2023-03-19T09:49:12.378Z,5.18
2023-03-19T09:51:22.006Z,1.95
2023-03-19T09:53:45.732Z,2.65
2023-03-19T09:55:54.392Z,2.58
2023-03-19T09:57:59.014Z,2.78
2023-03-19T10:00:01.673Z,4.88
2023-03-19T10:02:24.956Z,3.67
2023-03-19T10:04:47.430Z,2.85
2023-03-19T10:06:57.778Z,2.28
2023-03-19T10:09:29.094Z,2.25
2023-03-19T10:11:31.701Z,2.53
2023-03-19T10:14:14.102Z,3.70
2023-03-19T10:16:24.481Z,3.00
2023-03-19T10:18:35.272Z,1.48
2023-03-19T10:21:10.125Z,1.65
2023-03-19T10:23:28.700Z,2.78
2023-03-19T10:25:33.850Z,1.98
2023-03-19T10:27:38.198Z,5.07
2023-03-19T10:29:44.759Z,2.55
2023-03-19T10:31:56.454Z,4.28
2023-03-19T10:34:08.235Z,2.20
2023-03-19T10:36:14.711Z,1.23
2023-03-19T10:38:24.425Z,5.75
2023-03-19T10:40:36.687Z,2.53
2023-03-19T10:43:02.275Z,2.08
2023-03-19T10:45:26.851Z,3.78
2023-03-19T10:47:29.412Z,3.30
2023-03-19T10:49:36.236Z,4.60
2023-03-19T10:51:40.081Z,3.30
2023-03-19T10:53:42.999Z,4.75
2023-03-19T10:55:55.449Z,1.75
2023-03-19T10:58:17.157Z,6.03
2023-03-19T11:00:22.802Z,3.50
2023-03-19T11:02:32.013Z,2.00
2023-03-19T11:04:34.546Z,3.00
2023-03-19T11:06:39.162Z,3.22
2023-03-19T11:08:42.036Z,3.83
2023-03-19T11:10:49.878Z,2.88
2023-03-19T11:12:57.945Z,2.28
2023-03-19T11:15:04.043Z,13.50
2023-03-19T11:17:24.097Z,8.15
2023-03-19T11:19:29.755Z,2.65
2023-03-19T11:21:33.081Z,5.15
2023-03-19T11:23:41.652Z,5.43
2023-03-19T11:25:53.261Z,4.22
2023-03-19T11:28:03.931Z,1.98
2023-03-19T11:30:20.598Z,6.72
2023-03-19T11:32:52.493Z,1.90
2023-03-19T11:35:07.669Z,3.85
2023-03-19T11:37:48.347Z,4.95
2023-03-19T11:39:57.072Z,4.00
2023-03-19T11:42:10.781Z,3.95
2023-03-19T11:44:46.746Z,2.42
2023-03-19T11:46:57.367Z,3.45
2023-03-19T11:49:08.779Z,3.95
2023-03-19T11:51:31.377Z,5.20
2023-03-19T11:53:41.641Z,5.40
2023-03-19T11:55:56.667Z,3.03
2023-03-19T11:58:37.447Z,4.20
2023-03-19T12:00:47.596Z,2.83
2023-03-19T12:03:09.735Z,3.85
2023-03-19T12:07:40.272Z,1.77
2023-03-19T12:09:49.615Z,5.97
2023-03-19T12:12:07.720Z,3.60
2023-03-19T12:14:19.201Z,2.55
2023-03-19T12:16:55.991Z,3.65
2023-03-19T12:19:18.143Z,6.75
2023-03-19T12:24:05.383Z,2.72
2023-03-19T12:26:14.783Z,3.05
2023-03-19T12:28:30.194Z,2.78
2023-03-19T12:30:34.942Z,7.22
2023-03-19T12:32:55.814Z,5.00
2023-03-19T12:35:06.136Z,3.10
2023-03-19T12:37:22.672Z,3.35
2023-03-19T12:39:34.703Z,4.28
2023-03-19T12:41:42.544Z,6.50
2023-03-19T12:44:24.490Z,2.83
2023-03-19T12:46:58.613Z,3.00
2023-03-19T12:49:10.965Z,3.25
2023-03-19T12:51:20.589Z,2.60
2023-03-19T12:53:42.993Z,2.92
2023-03-19T12:55:53.531Z,3.70
2023-03-19T12:58:03.946Z,2.25
2023-03-19T13:00:26.816Z,2.65
2023-03-19T13:02:48.607Z,3.38
2023-03-19T13:04:57.624Z,2.85
2023-03-19T13:07:06.092Z,4.18
2023-03-19T13:09:33.655Z,4.80
2023-03-19T13:11:57.666Z,2.85
2023-03-19T13:14:14.714Z,5.20
2023-03-19T13:16:36.169Z,3.05
2023-03-19T13:18:43.465Z,3.05
2023-03-19T13:20:58.322Z,3.55
2023-03-19T13:23:04.959Z,3.28
2023-03-19T13:25:24.142Z,3.58
2023-03-19T13:27:31.778Z,5.47
2023-03-19T13:29:36.980Z,2.20
2023-03-19T13:31:39.603Z,3.45
2023-03-19T13:34:11.178Z,4.63
2023-03-19T13:36:15.312Z,4.18
2023-03-19T13:38:39.750Z,8.32
2023-03-19T13:40:53.174Z,3.05
2023-03-19T13:42:58.651Z,5.13
2023-03-19T13:45:26.559Z,4.35
2023-03-19T13:47:28.998Z,3.58
2023-03-19T13:49:34.125Z,4.00
2023-03-19T13:51:36.781Z,4.18
2023-03-19T13:53:53.775Z,3.70
2023-03-19T13:56:00.973Z,3.85
2023-03-19T13:58:52.076Z,4.10
2023-03-19T14:00:59.621Z,3.22
2023-03-19T14:03:02.403Z,3.38
2023-03-19T14:05:17.129Z,3.53
2023-03-19T14:07:24.548Z,4.20
2023-03-19T14:09:42.286Z,3.38
2023-03-19T14:11:44.888Z,2.35
2023-03-19T14:13:49.521Z,3.30
2023-03-19T14:15:53.394Z,4.50
2023-03-19T14:17:57.750Z,4.40
2023-03-19T14:20:13.684Z,3.35
2023-03-19T14:22:16.981Z,5.85
2023-03-19T14:24:55.786Z,2.42
2023-03-19T14:27:20.386Z,2.90
2023-03-19T14:29:27.871Z,6.95
2023-03-19T14:31:54.666Z,3.83
2023-03-19T14:34:06.663Z,3.15
2023-03-19T14:38:51.545Z,5.78
2023-03-19T14:40:56.465Z,12.60
2023-03-19T14:43:14.043Z,3.28
2023-03-19T14:45:42.186Z,8.80
2023-03-19T14:48:18.129Z,3.00
2023-03-19T14:50:50.648Z,3.97
2023-03-19T14:52:55.903Z,2.78
2023-03-19T14:55:12.140Z,2.88
2023-03-19T14:57:21.901Z,4.20
2023-03-19T14:59:25.020Z,7.45
2023-03-19T15:01:28.291Z,3.88
2023-03-19T15:03:37.898Z,8.50
2023-03-19T15:05:42.524Z,5.13
2023-03-19T15:07:48.272Z,6.25
2023-03-19T15:09:56.317Z,4.85
2023-03-19T15:12:17.575Z,9.38
2023-03-19T15:14:50.702Z,6.27
2023-03-19T15:17:27.569Z,6.90
2023-03-19T15:19:32.384Z,7.78
2023-03-19T15:21:34.894Z,10.82
2023-03-19T15:23:39.851Z,18.25
2023-03-19T15:25:57.092Z,9.38
2023-03-19T15:28:13.805Z,9.77
2023-03-19T15:30:28.776Z,6.03
2023-03-19T15:33:08.988Z,15.68
2023-03-19T15:35:02.430Z,6.50
2023-03-19T15:37:14.257Z,9.50
2023-03-19T15:39:19.031Z,4.57
2023-03-19T15:41:24.780Z,6.60
2023-03-19T15:43:27.975Z,8.48
2023-03-19T15:45:35.732Z,14.60
2023-03-19T15:47:45.364Z,7.40
2023-03-19T15:49:59.521Z,10.32
2023-03-19T15:52:07.363Z,5.25
2023-03-19T15:54:11.321Z,5.25
2023-03-19T15:56:17.249Z,6.40
2023-03-19T15:58:28.061Z,5.05
2023-03-19T16:00:30.789Z,6.07
2023-03-19T16:02:34.243Z,7.60
2023-03-19T16:05:03.544Z,11.00
2023-03-19T16:07:00.874Z,9.57
2023-03-19T16:09:32.105Z,8.35
2023-03-19T16:11:41.380Z,6.55
2023-03-19T16:13:57.137Z,6.43
2023-03-19T16:16:06.185Z,4.85
2023-03-19T16:18:20.508Z,4.95
2023-03-19T16:20:23.046Z,4.90
2023-03-19T16:22:33.126Z,6.68
2023-03-19T16:24:39.166Z,6.82
2023-03-19T16:26:43.962Z,5.10
2023-03-19T16:28:59.043Z,6.68
2023-03-19T16:31:01.957Z,5.82
2023-03-19T16:33:06.988Z,7.03
2023-03-19T16:35:15.604Z,6.25
2023-03-19T16:37:33.103Z,6.47
2023-03-19T16:39:37.600Z,5.07
2023-03-19T16:41:41.339Z,6.55
2023-03-19T16:43:47.573Z,6.78
2023-03-19T16:45:52.367Z,6.65
2023-03-19T16:47:57.303Z,4.53
2023-03-19T16:50:00.114Z,6.40
2023-03-19T16:52:03.309Z,5.65
2023-03-19T16:54:06.427Z,6.18
2023-03-19T16:56:12.967Z,5.03
2023-03-19T16:58:18.595Z,5.18
2023-03-19T17:00:22.555Z,8.10
2023-03-19T17:02:30.583Z,7.50
2023-03-19T17:04:33.099Z,7.18
2023-03-19T17:06:35.644Z,8.30
2023-03-19T17:08:38.200Z,6.53
2023-03-19T17:10:46.247Z,9.20
2023-03-19T17:12:52.372Z,7.82
2023-03-19T17:14:54.880Z,6.22
2023-03-19T17:16:58.195Z,6.00
2023-03-19T17:19:00.900Z,8.98
2023-03-19T17:21:17.689Z,6.85
2023-03-19T17:23:24.361Z,10.40
2023-03-19T17:25:27.119Z,7.72
2023-03-19T17:27:29.870Z,7.78
2023-03-19T17:29:33.396Z,15.73
2023-03-19T17:31:35.937Z,13.63
2023-03-19T17:33:38.533Z,12.68
2023-03-19T17:35:41.065Z,10.20
2023-03-19T17:37:44.411Z,9.50
2023-03-19T17:39:47.272Z,11.23
2023-03-19T17:41:51.485Z,13.27
2023-03-19T17:43:53.992Z,13.98
2023-03-19T17:45:57.690Z,11.85
2023-03-19T17:48:00.243Z,12.40
2023-03-19T17:50:02.906Z,17.02
2023-03-19T17:52:17.564Z,12.07
2023-03-19T17:54:20.499Z,14.70
2023-03-19T17:56:26.240Z,14.88
2023-03-19T17:58:29.347Z,16.70
2023-03-19T18:00:32.074Z,19.98
2023-03-19T18:02:36.364Z,20.85
2023-03-19T18:04:39.543Z,22.20
2023-03-19T18:06:50.758Z,19.35
2023-03-19T18:08:53.352Z,17.88
2023-03-19T18:10:55.965Z,16.27
2023-03-19T18:13:00.779Z,23.38
2023-03-19T18:15:04.513Z,22.02
2023-03-19T18:17:08.374Z,24.27
2023-03-19T18:19:20.844Z,21.85
2023-03-19T18:21:23.983Z,19.50
2023-03-19T18:23:26.704Z,23.23
2023-03-19T18:25:32.368Z,27.80
2023-03-19T18:27:35.177Z,23.75
2023-03-19T18:29:37.661Z,23.85
2023-03-19T18:31:42.032Z,16.80
2023-03-19T18:34:06.729Z,38.05
2023-03-19T18:36:09.414Z,22.88
2023-03-19T18:38:16.177Z,22.48
2023-03-19T18:40:25.669Z,19.92
2023-03-19T18:42:28.308Z,17.58
2023-03-19T18:44:31.139Z,19.58
2023-03-19T18:46:35.960Z,18.55
2023-03-19T18:48:38.538Z,23.38
2023-03-19T18:50:42.626Z,17.60
2023-03-19T18:52:47.556Z,19.38
2023-03-19T18:54:50.476Z,18.20
2023-03-19T18:56:54.974Z,21.70
2023-03-19T18:58:59.994Z,23.52
2023-03-19T19:01:04.595Z,27.90
2023-03-19T19:03:07.393Z,22.38
2023-03-19T19:05:16.029Z,24.23
2023-03-19T19:07:18.784Z,17.25
2023-03-19T19:09:21.396Z,22.55
2023-03-19T19:11:23.988Z,32.70
2023-03-19T19:13:30.453Z,18.27
2023-03-19T19:15:36.893Z,26.88
2023-03-19T19:17:41.886Z,22.23
2023-03-19T19:19:44.916Z,29.65
2023-03-19T19:21:47.374Z,22.73
2023-03-19T19:23:49.919Z,21.88
2023-03-19T19:25:55.297Z,24.08
2023-03-19T19:28:08.839Z,31.48
2023-03-19T19:30:22.148Z,24.70
2023-03-19T19:32:27.554Z,23.67
2023-03-19T19:34:30.122Z,26.30
2023-03-19T19:36:32.743Z,28.58
2023-03-19T19:38:35.439Z,25.90
2023-03-19T19:40:38.608Z,26.92
2023-03-19T19:42:41.658Z,24.65
2023-03-19T19:44:50.946Z,28.60
2023-03-19T19:46:54.702Z,29.02
2023-03-19T19:48:58.921Z,24.60
2023-03-19T19:51:01.462Z,28.27
2023-03-19T19:53:03.934Z,28.90
2023-03-19T19:55:07.098Z,28.52
2023-03-19T19:57:27.189Z,33.00
2023-03-19T19:59:29.694Z,24.48
2023-03-19T20:01:32.274Z,38.58
2023-03-19T20:03:34.990Z,31.42
2023-03-19T20:05:37.709Z,37.03
2023-03-19T20:07:40.842Z,36.40
2023-03-19T20:09:43.363Z,40.15
2023-03-19T20:11:46.244Z,34.67
2023-03-19T20:13:53.653Z,34.20
2023-03-19T20:15:58.259Z,36.50
2023-03-19T20:18:02.497Z,44.33
2023-03-19T20:20:14.662Z,36.10
2023-03-19T20:22:17.576Z,39.63
2023-03-19T20:24:20.045Z,39.70
2023-03-19T20:26:24.868Z,38.95
2023-03-19T20:28:32.606Z,43.92
2023-03-19T20:30:38.832Z,40.90
2023-03-19T20:32:41.376Z,43.50
2023-03-19T20:34:43.882Z,42.85
2023-03-19T20:36:46.356Z,42.22
2023-03-19T20:38:48.960Z,39.55
2023-03-19T20:40:56.691Z,40.88
2023-03-19T20:43:00.969Z,46.83
2023-03-19T20:45:03.810Z,43.75
2023-03-19T20:47:16.185Z,52.65
2023-03-19T20:49:18.631Z,54.63
2023-03-19T20:51:24.941Z,39.58
2023-03-19T20:53:29.371Z,43.65
2023-03-19T20:55:34.920Z,40.40
2023-03-19T20:57:38.066Z,50.00
2023-03-19T20:59:44.430Z,44.30
2023-03-19T21:01:47.101Z,39.10
2023-03-19T21:03:49.599Z,40.80
2023-03-19T21:06:03.790Z,38.78
2023-03-19T21:08:16.385Z,44.42
2023-03-19T21:10:30.931Z,49.97
2023-03-19T21:12:36.159Z,48.25
2023-03-19T21:14:38.778Z,47.40
2023-03-19T21:16:41.297Z,49.53
2023-03-19T21:18:44.029Z,44.97
2023-03-19T21:20:51.109Z,42.08
2023-03-19T21:22:58.798Z,47.67
2023-03-19T21:25:16.112Z,55.85
2023-03-19T21:27:23.087Z,42.88
2023-03-19T21:29:33.254Z,43.88
2023-03-19T21:31:36.218Z,42.83
2023-03-19T21:33:38.850Z,44.67
2023-03-19T21:35:41.450Z,48.67
2023-03-19T21:37:45.051Z,46.22
2023-03-19T21:39:48.018Z,51.10
2023-03-19T21:41:50.920Z,53.28
2023-03-19T21:43:56.366Z,45.88
2023-03-19T21:45:59.132Z,46.88
2023-03-19T21:48:45.013Z,52.00
2023-03-19T21:50:47.812Z,41.28
2023-03-19T21:53:00.554Z,52.83
2023-03-19T21:55:03.974Z,44.53
2023-03-19T21:57:09.207Z,46.92
2023-03-19T21:59:18.105Z,49.22
2023-03-19T22:01:23.797Z,51.50
2023-03-19T22:03:26.501Z,50.45
2023-03-19T22:05:29.288Z,47.35
2023-03-19T22:07:31.807Z,49.90
2023-03-19T22:09:34.287Z,46.55
2023-03-19T22:11:38.344Z,50.60
2023-03-19T22:13:43.377Z,46.38
2023-03-19T22:15:45.953Z,45.00
2023-03-19T22:17:50.073Z,50.83
2023-03-19T22:19:52.870Z,53.45
2023-03-19T22:21:55.493Z,55.70
2023-03-19T22:23:58.045Z,46.70
2023-03-19T22:26:00.604Z,48.33
2023-03-19T22:28:28.081Z,47.95
2023-03-19T22:30:38.982Z,47.55
2023-03-19T22:32:41.596Z,46.72
2023-03-19T22:34:44.969Z,53.30
2023-03-19T22:36:48.480Z,51.25
2023-03-19T22:38:51.892Z,50.45
2023-03-19T22:40:56.079Z,54.42
2023-03-19T22:42:58.708Z,49.42
2023-03-19T22:45:01.268Z,48.63
2023-03-19T22:47:05.670Z,53.70
2023-03-19T22:49:17.051Z,51.60
2023-03-19T22:51:21.662Z,68.80
2023-03-19T22:53:27.248Z,55.40
2023-03-19T22:55:29.782Z,49.75
2023-03-19T22:57:32.386Z,53.58
2023-03-19T22:59:34.942Z,53.65
2023-03-19T23:01:43.431Z,58.60
2023-03-19T23:03:46.324Z,52.08
2023-03-19T23:05:52.959Z,54.92
2023-03-19T23:07:57.517Z,54.63
2023-03-19T23:10:00.874Z,58.28
2023-03-19T23:12:04.890Z,60.92
2023-03-19T23:14:15.260Z,60.20
2023-03-19T23:16:25.524Z,63.88
2023-03-19T23:18:32.418Z,65.25
2023-03-19T23:20:35.033Z,58.30
2023-03-19T23:22:37.565Z,71.57
2023-03-19T23:24:40.062Z,73.38
2023-03-19T23:26:50.626Z,60.38
2023-03-19T23:28:53.970Z,79.13
2023-03-19T23:30:57.515Z,76.22
2023-03-19T23:33:03.306Z,67.15
2023-03-19T23:35:16.382Z,66.18
2023-03-19T23:37:18.861Z,75.00
2023-03-19T23:39:21.373Z,66.93
2023-03-19T23:41:26.087Z,69.63
2023-03-19T23:43:29.485Z,74.93
2023-03-19T23:45:41.789Z,70.90
2023-03-19T23:47:44.435Z,73.95
2023-03-19T23:49:47.037Z,68.53
2023-03-19T23:51:49.629Z,68.60
2023-03-19T23:53:52.150Z,75.68
2023-03-19T23:56:01.213Z,77.57
2023-03-19T23:58:04.091Z,78.00
